sensor_id;sensor_type;location;lat;lon;timestamp;pressure;altitude;pressure_sealevel;temperature;humidity
69848;BME280;57143;55.940;37.496;2023-07-20T00:02:17;96119.28;;;13.13;100.00
69848;BME280;57143;55.940;37.496;2023-07-20T00:04:44;96111.94;;;13.14;100.00
69848;BME280;57143;55.940;37.496;2023-07-20T00:07:11;96098.63;;;12.95;100.00
69848;BME280;57143;55.940;37.496;2023-07-20T00:09:39;96125.19;;;13.15;100.00
69848;BME280;57143;55.940;37.496;2023-07-20T00:12:08;96129.84;;;13.15;100.00
69848;BME280;57143;55.940;37.496;2023-07-20T00:14:36;96123.63;;;13.06;100.00
69848;BME280;57143;55.940;37.496;2023-07-20T00:17:03;96128.88;;;13.11;100.00
69848;BME280;57143;55.940;37.496;2023-07-20T00:19:30;96138.47;;;13.08;100.00
69848;BME280;57143;55.940;37.496;2023-07-20T00:21:58;96138.31;;;13.05;100.00
69848;BME280;57143;55.940;37.496;2023-07-20T00:24:26;96138.44;;;13.00;100.00
69848;BME280;57143;55.940;37.496;2023-07-20T00:26:53;96140.06;;;13.01;100.00
69848;BME280;57143;55.940;37.496;2023-07-20T00:29:22;96138.13;;;13.01;100.00
69848;BME280;57143;55.940;37.496;2023-07-20T00:31:49;96129.03;;;12.97;100.00
69848;BME280;57143;55.940;37.496;2023-07-20T00:34:16;96147.41;;;13.00;100.00
69848;BME280;57143;55.940;37.496;2023-07-20T00:36:43;96149.63;;;12.98;100.00
69848;BME280;57143;55.940;37.496;2023-07-20T00:39:10;96143.25;;;12.94;100.00
69848;BME280;57143;55.940;37.496;2023-07-20T00:41:38;96145.66;;;12.96;100.00
69848;BME280;57143;55.940;37.496;2023-07-20T00:44:05;96145.66;;;12.87;100.00
69848;BME280;57143;55.940;37.496;2023-07-20T00:46:34;96154.75;;;12.91;100.00
69848;BME280;57143;55.940;37.496;2023-07-20T00:49:01;96156.69;;;12.91;100.00
69848;BME280;57143;55.940;37.496;2023-07-20T00:51:29;96124.34;;;12.72;100.00
69848;BME280;57143;55.940;37.496;2023-07-20T00:53:56;96149.63;;;12.90;100.00
69848;BME280;57143;55.940;37.496;2023-07-20T00:56:24;96152.66;;;12.88;100.00
69848;BME280;57143;55.940;37.496;2023-07-20T00:58:52;96119.72;;;12.64;100.00
69848;BME280;57143;55.940;37.496;2023-07-20T01:01:19;96143.88;;;12.82;100.00
69848;BME280;57143;55.940;37.496;2023-07-20T01:03:48;96152.81;;;12.83;100.00
69848;BME280;57143;55.940;37.496;2023-07-20T01:06:24;96156.69;;;12.82;100.00
69848;BME280;57143;55.940;37.496;2023-07-20T01:09:00;96148.81;;;12.80;100.00
69848;BME280;57143;55.940;37.496;2023-07-20T01:11:36;96130.59;;;12.72;100.00
69848;BME280;57143;55.940;37.496;2023-07-20T01:14:06;96126.28;;;12.71;100.00
69848;BME280;57143;55.940;37.496;2023-07-20T01:16:33;96151.84;;;12.79;100.00
69848;BME280;57143;55.940;37.496;2023-07-20T01:19:02;96147.06;;;12.76;100.00
69848;BME280;57143;55.940;37.496;2023-07-20T01:21:34;96147.06;;;12.76;100.00
69848;BME280;57143;55.940;37.496;2023-07-20T01:27:36;96129.00;;;12.80;100.00
69848;BME280;57143;55.940;37.496;2023-07-20T01:30:28;96131.25;;;12.87;100.00
69848;BME280;57143;55.940;37.496;2023-07-20T01:33:01;96120.69;;;12.85;100.00
69848;BME280;57143;55.940;37.496;2023-07-20T01:35:30;96110.31;;;12.87;100.00
69848;BME280;57143;55.940;37.496;2023-07-20T01:37:59;96117.50;;;13.43;100.00
69848;BME280;57143;55.940;37.496;2023-07-20T01:40:26;96114.69;;;13.85;100.00
69848;BME280;57143;55.940;37.496;2023-07-20T01:42:54;96087.38;;;13.65;100.00
69848;BME280;57143;55.940;37.496;2023-07-20T01:45:21;96107.72;;;13.59;100.00
69848;BME280;57143;55.940;37.496;2023-07-20T01:47:49;96125.97;;;13.50;100.00
69848;BME280;57143;55.940;37.496;2023-07-20T01:50:17;96132.53;;;13.49;100.00
69848;BME280;57143;55.940;37.496;2023-07-20T01:52:45;96120.81;;;13.65;100.00
69848;BME280;57143;55.940;37.496;2023-07-20T01:55:12;96102.50;;;14.29;100.00
69848;BME280;57143;55.940;37.496;2023-07-20T01:57:39;96060.16;;;14.81;100.00
69848;BME280;57143;55.940;37.496;2023-07-20T02:00:07;96079.50;;;15.62;100.00
69848;BME280;57143;55.940;37.496;2023-07-20T02:02:35;96059.97;;;15.96;100.00
69848;BME280;57143;55.940;37.496;2023-07-20T02:05:03;96083.00;;;16.44;100.00
69848;BME280;57143;55.940;37.496;2023-07-20T02:07:31;96133.72;;;16.77;100.00
69848;BME280;57143;55.940;37.496;2023-07-20T02:09:58;96252.53;;;17.28;100.00
69848;BME280;57143;55.940;37.496;2023-07-20T02:12:26;96390.69;;;17.91;100.00
69848;BME280;57143;55.940;37.496;2023-07-20T02:14:53;96521.66;;;18.09;100.00
69848;BME280;57143;55.940;37.496;2023-07-20T02:17:20;96637.03;;;18.16;100.00
69848;BME280;57143;55.940;37.496;2023-07-20T02:20:08;96670.09;;;18.56;100.00
69848;BME280;57143;55.940;37.496;2023-07-20T02:22:38;96763.06;;;18.82;100.00
69848;BME280;57143;55.940;37.496;2023-07-20T02:25:06;96789.06;;;19.08;100.00
69848;BME280;57143;55.940;37.496;2023-07-20T02:27:34;96845.28;;;19.35;100.00
69848;BME280;57143;55.940;37.496;2023-07-20T02:30:01;96866.47;;;19.34;100.00
69848;BME280;57143;55.940;37.496;2023-07-20T02:32:35;96941.22;;;19.64;100.00
69848;BME280;57143;55.940;37.496;2023-07-20T02:35:03;96949.69;;;20.07;100.00
69848;BME280;57143;55.940;37.496;2023-07-20T02:37:33;97004.47;;;20.36;100.00
69848;BME280;57143;55.940;37.496;2023-07-20T02:40:02;97055.59;;;20.49;100.00
69848;BME280;57143;55.940;37.496;2023-07-20T02:42:32;97077.44;;;20.82;100.00
69848;BME280;57143;55.940;37.496;2023-07-20T02:44:59;97107.53;;;20.51;100.00
69848;BME280;57143;55.940;37.496;2023-07-20T02:47:27;97115.06;;;21.02;100.00
69848;BME280;57143;55.940;37.496;2023-07-20T02:49:56;97146.88;;;20.88;100.00
69848;BME280;57143;55.940;37.496;2023-07-20T02:52:23;97161.66;;;21.07;100.00
69848;BME280;57143;55.940;37.496;2023-07-20T02:54:51;97164.22;;;21.40;100.00
69848;BME280;57143;55.940;37.496;2023-07-20T02:57:19;97205.94;;;21.78;100.00
69848;BME280;57143;55.940;37.496;2023-07-20T02:59:46;97211.09;;;21.92;100.00
69848;BME280;57143;55.940;37.496;2023-07-20T03:02:14;97241.28;;;22.00;100.00
69848;BME280;57143;55.940;37.496;2023-07-20T03:04:41;97251.81;;;21.58;100.00
69848;BME280;57143;55.940;37.496;2023-07-20T03:07:08;97252.34;;;21.88;100.00
69848;BME280;57143;55.940;37.496;2023-07-20T03:09:36;97254.09;;;21.81;100.00
69848;BME280;57143;55.940;37.496;2023-07-20T03:12:03;97277.50;;;22.42;100.00
69848;BME280;57143;55.940;37.496;2023-07-20T03:14:32;97285.78;;;22.69;100.00
69848;BME280;57143;55.940;37.496;2023-07-20T03:17:00;97321.66;;;22.14;100.00
69848;BME280;57143;55.940;37.496;2023-07-20T03:19:27;97334.72;;;22.69;100.00
69848;BME280;57143;55.940;37.496;2023-07-20T03:21:54;97336.00;;;23.03;100.00
69848;BME280;57143;55.940;37.496;2023-07-20T03:24:21;97354.56;;;23.49;100.00
69848;BME280;57143;55.940;37.496;2023-07-20T03:26:49;97350.09;;;22.42;100.00
69848;BME280;57143;55.940;37.496;2023-07-20T03:29:16;97358.72;;;22.96;100.00
69848;BME280;57143;55.940;37.496;2023-07-20T03:31:45;97358.28;;;23.10;100.00
69848;BME280;57143;55.940;37.496;2023-07-20T03:34:12;97376.00;;;23.67;100.00
69848;BME280;57143;55.940;37.496;2023-07-20T03:36:39;97410.41;;;23.70;100.00
69848;BME280;57143;55.940;37.496;2023-07-20T03:39:07;97416.03;;;23.89;100.00
69848;BME280;57143;55.940;37.496;2023-07-20T03:41:34;97419.16;;;23.87;100.00
69848;BME280;57143;55.940;37.496;2023-07-20T03:44:02;97433.72;;;24.00;100.00
69848;BME280;57143;55.940;37.496;2023-07-20T03:46:30;97430.22;;;23.72;100.00
69848;BME280;57143;55.940;37.496;2023-07-20T03:49:01;97408.44;;;23.86;100.00
69848;BME280;57143;55.940;37.496;2023-07-20T03:51:29;97415.22;;;23.73;100.00
69848;BME280;57143;55.940;37.496;2023-07-20T03:53:56;97437.56;;;24.65;100.00
69848;BME280;57143;55.940;37.496;2023-07-20T03:56:23;97468.81;;;25.00;100.00
69848;BME280;57143;55.940;37.496;2023-07-20T03:58:51;97508.84;;;25.41;100.00
69848;BME280;57143;55.940;37.496;2023-07-20T04:01:18;97519.63;;;25.07;100.00
69848;BME280;57143;55.940;37.496;2023-07-20T04:03:45;97524.50;;;25.49;100.00
69848;BME280;57143;55.940;37.496;2023-07-20T04:06:14;97496.81;;;24.76;100.00
69848;BME280;57143;55.940;37.496;2023-07-20T04:08:42;97483.75;;;24.76;100.00
69848;BME280;57143;55.940;37.496;2023-07-20T04:11:09;97517.97;;;25.60;100.00
69848;BME280;57143;55.940;37.496;2023-07-20T04:13:36;97545.19;;;25.17;100.00
69848;BME280;57143;55.940;37.496;2023-07-20T04:16:04;97499.81;;;23.15;100.00
69848;BME280;57143;55.940;37.496;2023-07-20T04:18:31;97405.16;;;22.63;100.00
69848;BME280;57143;55.940;37.496;2023-07-20T04:20:59;97386.31;;;23.86;100.00
69848;BME280;57143;55.940;37.496;2023-07-20T04:23:27;97434.69;;;24.61;100.00
69848;BME280;57143;55.940;37.496;2023-07-20T04:25:54;97461.72;;;25.02;100.00
69848;BME280;57143;55.940;37.496;2023-07-20T04:28:21;97480.34;;;25.63;100.00
69848;BME280;57143;55.940;37.496;2023-07-20T04:30:49;97446.19;;;25.59;100.00
69848;BME280;57143;55.940;37.496;2023-07-20T04:33:17;97434.72;;;25.83;100.00
69848;BME280;57143;55.940;37.496;2023-07-20T04:35:46;97447.53;;;25.46;100.00
69848;BME280;57143;55.940;37.496;2023-07-20T04:38:14;97538.97;;;25.04;100.00
69848;BME280;57143;55.940;37.496;2023-07-20T04:40:44;97437.50;;;24.80;100.00
69848;BME280;57143;55.940;37.496;2023-07-20T04:43:12;97477.63;;;24.86;100.00
69848;BME280;57143;55.940;37.496;2023-07-20T04:45:39;97479.09;;;25.38;100.00
69848;BME280;57143;55.940;37.496;2023-07-20T04:48:09;97520.63;;;25.76;100.00
69848;BME280;57143;55.940;37.496;2023-07-20T04:50:37;97493.44;;;25.62;100.00
69848;BME280;57143;55.940;37.496;2023-07-20T04:53:04;97513.53;;;25.56;100.00
69848;BME280;57143;55.940;37.496;2023-07-20T04:55:31;97482.44;;;25.47;100.00
69848;BME280;57143;55.940;37.496;2023-07-20T04:58:01;97481.91;;;25.83;100.00
69848;BME280;57143;55.940;37.496;2023-07-20T05:00:29;97500.22;;;26.10;100.00
69848;BME280;57143;55.940;37.496;2023-07-20T05:02:56;97517.31;;;26.61;100.00
69848;BME280;57143;55.940;37.496;2023-07-20T05:05:23;97525.56;;;26.80;100.00
69848;BME280;57143;55.940;37.496;2023-07-20T05:07:51;97536.81;;;25.51;100.00
69848;BME280;57143;55.940;37.496;2023-07-20T05:10:18;97543.00;;;26.05;100.00
69848;BME280;57143;55.940;37.496;2023-07-20T05:12:45;97558.53;;;25.68;100.00
69848;BME280;57143;55.940;37.496;2023-07-20T05:15:14;97540.50;;;25.78;100.00
69848;BME280;57143;55.940;37.496;2023-07-20T05:17:41;97584.78;;;26.12;100.00
69848;BME280;57143;55.940;37.496;2023-07-20T05:20:09;97608.91;;;25.89;100.00
69848;BME280;57143;55.940;37.496;2023-07-20T05:22:38;97653.88;;;26.59;100.00
69848;BME280;57143;55.940;37.496;2023-07-20T05:25:07;97661.47;;;26.62;100.00
69848;BME280;57143;55.940;37.496;2023-07-20T05:27:36;97730.88;;;26.59;100.00
69848;BME280;57143;55.940;37.496;2023-07-20T05:30:05;97727.78;;;26.64;100.00
69848;BME280;57143;55.940;37.496;2023-07-20T05:32:34;97786.69;;;26.69;100.00
69848;BME280;57143;55.940;37.496;2023-07-20T05:35:02;97750.34;;;26.01;100.00
69848;BME280;57143;55.940;37.496;2023-07-20T05:37:30;97788.38;;;26.36;100.00
69848;BME280;57143;55.940;37.496;2023-07-20T05:39:58;97900.94;;;27.02;100.00
69848;BME280;57143;55.940;37.496;2023-07-20T05:42:25;97985.59;;;27.05;100.00
69848;BME280;57143;55.940;37.496;2023-07-20T05:44:52;98013.84;;;27.26;100.00
69848;BME280;57143;55.940;37.496;2023-07-20T05:47:21;98123.56;;;27.63;100.00
69848;BME280;57143;55.940;37.496;2023-07-20T05:49:49;98110.34;;;26.87;100.00
69848;BME280;57143;55.940;37.496;2023-07-20T05:52:17;98136.66;;;27.24;100.00
69848;BME280;57143;55.940;37.496;2023-07-20T05:54:44;98090.81;;;26.84;100.00
69848;BME280;57143;55.940;37.496;2023-07-20T05:57:11;98134.31;;;27.26;100.00
69848;BME280;57143;55.940;37.496;2023-07-20T05:59:39;98240.56;;;27.48;100.00
69848;BME280;57143;55.940;37.496;2023-07-20T06:02:10;98295.47;;;27.32;100.00
69848;BME280;57143;55.940;37.496;2023-07-20T06:04:38;98279.63;;;26.89;100.00
69848;BME280;57143;55.940;37.496;2023-07-20T06:07:07;98298.88;;;27.60;100.00
69848;BME280;57143;55.940;37.496;2023-07-20T06:09:35;98369.13;;;27.53;100.00
69848;BME280;57143;55.940;37.496;2023-07-20T06:12:02;98363.19;;;27.23;100.00
69848;BME280;57143;55.940;37.496;2023-07-20T06:14:30;98364.34;;;27.85;100.00
69848;BME280;57143;55.940;37.496;2023-07-20T06:16:58;98360.03;;;27.72;100.00
69848;BME280;57143;55.940;37.496;2023-07-20T06:19:25;98371.78;;;27.81;100.00
69848;BME280;57143;55.940;37.496;2023-07-20T06:21:52;98392.84;;;27.94;100.00
69848;BME280;57143;55.940;37.496;2023-07-20T06:24:21;98381.91;;;27.89;100.00
69848;BME280;57143;55.940;37.496;2023-07-20T06:26:48;98381.09;;;27.38;100.00
69848;BME280;57143;55.940;37.496;2023-07-20T06:29:15;98394.88;;;27.19;100.00
69848;BME280;57143;55.940;37.496;2023-07-20T06:31:42;98355.41;;;26.70;100.00
69848;BME280;57143;55.940;37.496;2023-07-20T06:34:10;98352.31;;;26.60;100.00
69848;BME280;57143;55.940;37.496;2023-07-20T06:36:37;98334.47;;;26.88;100.00
69848;BME280;57143;55.940;37.496;2023-07-20T06:39:04;98368.13;;;26.16;100.00
69848;BME280;57143;55.940;37.496;2023-07-20T06:41:33;98363.16;;;26.92;100.00
69848;BME280;57143;55.940;37.496;2023-07-20T06:44:00;98370.28;;;27.05;100.00
69848;BME280;57143;55.940;37.496;2023-07-20T06:46:27;98401.38;;;27.54;100.00
69848;BME280;57143;55.940;37.496;2023-07-20T06:48:55;98339.13;;;27.00;100.00
69848;BME280;57143;55.940;37.496;2023-07-20T06:51:22;98296.59;;;26.99;100.00
69848;BME280;57143;55.940;37.496;2023-07-20T06:53:50;98316.97;;;26.88;100.00
69848;BME280;57143;55.940;37.496;2023-07-20T06:56:17;98311.75;;;26.86;100.00
69848;BME280;57143;55.940;37.496;2023-07-20T06:58:45;98306.13;;;26.28;100.00
69848;BME280;57143;55.940;37.496;2023-07-20T07:01:13;98282.31;;;27.16;100.00
69848;BME280;57143;55.940;37.496;2023-07-20T07:03:40;98254.78;;;26.80;100.00
69848;BME280;57143;55.940;37.496;2023-07-20T07:06:08;98251.81;;;27.04;100.00
69848;BME280;57143;55.940;37.496;2023-07-20T07:08:35;98219.81;;;26.79;100.00
69848;BME280;57143;55.940;37.496;2023-07-20T07:11:02;98210.25;;;26.65;100.00
69848;BME280;57143;55.940;37.496;2023-07-20T07:13:29;98178.84;;;26.76;100.00
69848;BME280;57143;55.940;37.496;2023-07-20T07:15:58;99026.81;;;27.05;100.00
69848;BME280;57143;55.940;37.496;2023-07-20T07:18:26;98983.47;;;27.61;100.00
69848;BME280;57143;55.940;37.496;2023-07-20T07:20:53;98930.75;;;27.20;100.00
69848;BME280;57143;55.940;37.496;2023-07-20T07:23:20;98932.72;;;26.75;100.00
69848;BME280;57143;55.940;37.496;2023-07-20T07:25:48;98861.84;;;26.93;100.00
69848;BME280;57143;55.940;37.496;2023-07-20T07:28:15;98846.06;;;26.85;100.00
69848;BME280;57143;55.940;37.496;2023-07-20T07:30:42;98783.88;;;26.57;100.00
69848;BME280;57143;55.940;37.496;2023-07-20T07:33:11;98674.31;;;27.30;100.00
69848;BME280;57143;55.940;37.496;2023-07-20T07:35:39;98520.13;;;27.62;100.00
69848;BME280;57143;55.940;37.496;2023-07-20T07:38:06;98419.28;;;27.10;100.00
69848;BME280;57143;55.940;37.496;2023-07-20T07:40:33;98333.19;;;26.86;100.00
69848;BME280;57143;55.940;37.496;2023-07-20T07:43:00;98173.94;;;27.04;100.00
69848;BME280;57143;55.940;37.496;2023-07-20T07:45:27;98119.28;;;26.31;100.00
69848;BME280;57143;55.940;37.496;2023-07-20T07:47:55;98026.19;;;26.21;100.00
69848;BME280;57143;55.940;37.496;2023-07-20T07:50:23;98009.22;;;26.42;100.00
69848;BME280;57143;55.940;37.496;2023-07-20T07:52:50;97954.53;;;26.30;100.00
69848;BME280;57143;55.940;37.496;2023-07-20T07:55:18;97910.06;;;26.65;100.00
69848;BME280;57143;55.940;37.496;2023-07-20T07:57:45;97847.69;;;26.43;100.00
69848;BME280;57143;55.940;37.496;2023-07-20T08:00:14;97924.97;;;26.03;100.00
69848;BME280;57143;55.940;37.496;2023-07-20T08:02:45;97844.38;;;26.57;100.00
69848;BME280;57143;55.940;37.496;2023-07-20T08:05:14;97819.38;;;26.57;100.00
69848;BME280;57143;55.940;37.496;2023-07-20T08:07:43;97851.13;;;26.02;100.00
69848;BME280;57143;55.940;37.496;2023-07-20T08:10:11;97829.47;;;26.07;100.00
69848;BME280;57143;55.940;37.496;2023-07-20T08:12:38;97732.81;;;26.36;100.00
69848;BME280;57143;55.940;37.496;2023-07-20T08:15:07;97744.13;;;25.89;100.00
69848;BME280;57143;55.940;37.496;2023-07-20T08:17:34;97774.88;;;25.46;100.00
69848;BME280;57143;55.940;37.496;2023-07-20T08:20:01;97825.53;;;24.96;100.00
69848;BME280;57143;55.940;37.496;2023-07-20T08:22:31;97847.09;;;25.65;100.00
69848;BME280;57143;55.940;37.496;2023-07-20T08:25:00;97843.38;;;25.92;100.00
69848;BME280;57143;55.940;37.496;2023-07-20T08:27:30;97807.44;;;26.18;100.00
69848;BME280;57143;55.940;37.496;2023-07-20T08:29:57;97777.31;;;26.58;100.00
69848;BME280;57143;55.940;37.496;2023-07-20T08:32:25;97797.16;;;26.18;100.00
69848;BME280;57143;55.940;37.496;2023-07-20T08:34:52;97814.69;;;26.03;100.00
69848;BME280;57143;55.940;37.496;2023-07-20T08:37:19;97965.72;;;24.18;100.00
69848;BME280;57143;55.940;37.496;2023-07-20T08:39:46;98016.47;;;24.85;100.00
69848;BME280;57143;55.940;37.496;2023-07-20T08:42:16;98084.31;;;24.76;100.00
69848;BME280;57143;55.940;37.496;2023-07-20T08:44:44;98057.72;;;24.75;100.00
69848;BME280;57143;55.940;37.496;2023-07-20T08:47:13;98079.22;;;24.66;100.00
69848;BME280;57143;55.940;37.496;2023-07-20T08:49:42;98023.31;;;24.88;100.00
69848;BME280;57143;55.940;37.496;2023-07-20T08:52:10;98066.28;;;24.58;100.00
69848;BME280;57143;55.940;37.496;2023-07-20T08:54:39;98181.03;;;24.45;100.00
69848;BME280;57143;55.940;37.496;2023-07-20T08:57:07;98149.31;;;24.78;100.00
69848;BME280;57143;55.940;37.496;2023-07-20T08:59:38;98217.75;;;24.09;100.00
69848;BME280;57143;55.940;37.496;2023-07-20T09:02:05;98306.09;;;23.81;100.00
69848;BME280;57143;55.940;37.496;2023-07-20T09:04:35;98327.03;;;23.62;100.00
69848;BME280;57143;55.940;37.496;2023-07-20T09:07:03;98474.94;;;23.18;100.00
69848;BME280;57143;55.940;37.496;2023-07-20T09:09:30;98671.25;;;23.44;100.00
69848;BME280;57143;55.940;37.496;2023-07-20T09:11:57;98711.78;;;23.74;100.00
69848;BME280;57143;55.940;37.496;2023-07-20T09:14:25;98770.84;;;23.52;100.00
69848;BME280;57143;55.940;37.496;2023-07-20T09:16:54;98858.34;;;23.01;100.00
69848;BME280;57143;55.940;37.496;2023-07-20T09:19:22;98948.09;;;23.25;100.00
69848;BME280;57143;55.940;37.496;2023-07-20T09:21:51;98938.91;;;23.86;100.00
69848;BME280;57143;55.940;37.496;2023-07-20T09:24:20;98936.31;;;23.98;100.00
69848;BME280;57143;55.940;37.496;2023-07-20T09:26:48;98940.06;;;23.93;100.00
69848;BME280;57143;55.940;37.496;2023-07-20T09:29:18;98968.09;;;24.09;100.00
69848;BME280;57143;55.940;37.496;2023-07-20T09:31:58;99020.63;;;23.92;100.00
69848;BME280;57143;55.940;37.496;2023-07-20T09:34:25;99059.16;;;23.71;100.00
69848;BME280;57143;55.940;37.496;2023-07-20T09:36:53;99083.78;;;23.51;100.00
69848;BME280;57143;55.940;37.496;2023-07-20T09:39:20;99141.22;;;23.10;100.00
69848;BME280;57143;55.940;37.496;2023-07-20T09:41:47;99173.78;;;22.63;100.00
69848;BME280;57143;55.940;37.496;2023-07-20T09:44:15;99162.81;;;22.72;100.00
69848;BME280;57143;55.940;37.496;2023-07-20T09:46:43;99193.22;;;22.72;100.00
69848;BME280;57143;55.940;37.496;2023-07-20T09:49:12;99193.59;;;22.38;100.00
69848;BME280;57143;55.940;37.496;2023-07-20T09:51:40;99149.50;;;22.33;100.00
69848;BME280;57143;55.940;37.496;2023-07-20T09:54:08;99073.41;;;21.73;100.00
69848;BME280;57143;55.940;37.496;2023-07-20T09:56:36;99006.34;;;21.77;100.00
69848;BME280;57143;55.940;37.496;2023-07-20T09:59:05;98965.63;;;21.83;100.00
69848;BME280;57143;55.940;37.496;2023-07-20T10:01:34;98910.66;;;21.73;100.00
69848;BME280;57143;55.940;37.496;2023-07-20T10:04:07;98922.28;;;22.33;100.00
69848;BME280;57143;55.940;37.496;2023-07-20T10:06:41;98950.38;;;22.70;100.00
69848;BME280;57143;55.940;37.496;2023-07-20T10:09:10;99002.63;;;22.58;100.00
69848;BME280;57143;55.940;37.496;2023-07-20T10:11:43;99060.34;;;23.26;100.00
69848;BME280;57143;55.940;37.496;2023-07-20T10:14:12;99105.59;;;23.52;100.00
69848;BME280;57143;55.940;37.496;2023-07-20T10:16:49;99199.84;;;22.84;100.00
69848;BME280;57143;55.940;37.496;2023-07-20T10:19:23;99215.78;;;23.01;100.00
69848;BME280;57143;55.940;37.496;2023-07-20T10:21:57;99189.00;;;22.47;100.00
69848;BME280;57143;55.940;37.496;2023-07-20T10:24:28;99212.78;;;22.62;100.00
69848;BME280;57143;55.940;37.496;2023-07-20T10:26:55;99212.84;;;22.43;100.00
69848;BME280;57143;55.940;37.496;2023-07-20T10:29:23;99174.88;;;22.08;100.00
69848;BME280;57143;55.940;37.496;2023-07-20T10:31:54;99094.72;;;21.86;100.00
69848;BME280;57143;55.940;37.496;2023-07-20T10:34:22;99096.75;;;22.21;100.00
69848;BME280;57143;55.940;37.496;2023-07-20T10:36:49;99125.06;;;22.54;100.00
69848;BME280;57143;55.940;37.496;2023-07-20T10:39:26;99139.78;;;22.49;100.00
69848;BME280;57143;55.940;37.496;2023-07-20T10:42:00;99140.19;;;22.70;100.00
69848;BME280;57143;55.940;37.496;2023-07-20T10:44:29;99149.34;;;22.57;100.00
69848;BME280;57143;55.940;37.496;2023-07-20T10:46:59;99138.78;;;22.72;100.00
69848;BME280;57143;55.940;37.496;2023-07-20T10:49:27;99142.13;;;22.69;100.00
69848;BME280;57143;55.940;37.496;2023-07-20T10:51:59;99139.16;;;22.52;100.00
69848;BME280;57143;55.940;37.496;2023-07-20T10:54:49;99106.34;;;22.37;100.00
69848;BME280;57143;55.940;37.496;2023-07-20T10:57:25;99083.72;;;22.49;100.00
69848;BME280;57143;55.940;37.496;2023-07-20T11:00:08;99097.72;;;22.52;100.00
69848;BME280;57143;55.940;37.496;2023-07-20T11:02:46;99080.44;;;22.74;100.00
69848;BME280;57143;55.940;37.496;2023-07-20T11:05:32;99066.22;;;22.67;100.00
69848;BME280;57143;55.940;37.496;2023-07-20T11:08:00;99073.03;;;22.83;100.00
69848;BME280;57143;55.940;37.496;2023-07-20T11:10:29;99039.16;;;22.55;100.00
69848;BME280;57143;55.940;37.496;2023-07-20T11:13:18;99049.59;;;22.80;100.00
69848;BME280;57143;55.940;37.496;2023-07-20T11:15:47;99057.00;;;22.93;100.00
69848;BME280;57143;55.940;37.496;2023-07-20T11:18:15;99055.50;;;22.87;100.00
69848;BME280;57143;55.940;37.496;2023-07-20T11:20:42;99107.31;;;22.82;100.00
69848;BME280;57143;55.940;37.496;2023-07-20T11:23:12;99125.66;;;22.64;100.00
69848;BME280;57143;55.940;37.496;2023-07-20T11:25:40;99091.84;;;22.18;100.00
69848;BME280;57143;55.940;37.496;2023-07-20T11:28:08;99117.19;;;22.47;100.00
69848;BME280;57143;55.940;37.496;2023-07-20T11:30:37;99117.50;;;22.46;100.00
69848;BME280;57143;55.940;37.496;2023-07-20T11:33:05;99137.78;;;22.55;100.00
69848;BME280;57143;55.940;37.496;2023-07-20T11:35:35;99155.03;;;22.20;100.00
69848;BME280;57143;55.940;37.496;2023-07-20T11:38:03;99122.63;;;21.85;100.00
69848;BME280;57143;55.940;37.496;2023-07-20T11:40:32;99065.44;;;21.58;100.00
69848;BME280;57143;55.940;37.496;2023-07-20T11:43:01;99071.91;;;21.35;100.00
69848;BME280;57143;55.940;37.496;2023-07-20T11:45:29;99025.31;;;21.20;100.00
69848;BME280;57143;55.940;37.496;2023-07-20T11:47:59;98961.41;;;21.04;100.00
69848;BME280;57143;55.940;37.496;2023-07-20T11:50:26;98897.84;;;20.82;100.00
69848;BME280;57143;55.940;37.496;2023-07-20T11:52:53;98840.69;;;20.60;100.00
69848;BME280;57143;55.940;37.496;2023-07-20T11:55:21;98813.16;;;20.60;100.00
69848;BME280;57143;55.940;37.496;2023-07-20T11:58:06;98869.34;;;20.59;100.00
69848;BME280;57143;55.940;37.496;2023-07-20T12:00:36;98894.38;;;20.77;100.00
69848;BME280;57143;55.940;37.496;2023-07-20T12:03:06;98919.34;;;21.12;100.00
69848;BME280;57143;55.940;37.496;2023-07-20T12:05:33;98929.25;;;21.13;100.00
69848;BME280;57143;55.940;37.496;2023-07-20T12:08:01;98997.63;;;21.70;100.00
69848;BME280;57143;55.940;37.496;2023-07-20T12:10:28;99011.72;;;21.96;100.00
69848;BME280;57143;55.940;37.496;2023-07-20T12:13:01;99001.81;;;21.82;100.00
69848;BME280;57143;55.940;37.496;2023-07-20T12:15:31;98990.34;;;22.15;100.00
69848;BME280;57143;55.940;37.496;2023-07-20T12:18:00;99002.69;;;22.31;100.00
69848;BME280;57143;55.940;37.496;2023-07-20T12:20:29;99009.75;;;22.59;100.00
69848;BME280;57143;55.940;37.496;2023-07-20T12:22:58;99051.78;;;22.70;100.00
69848;BME280;57143;55.940;37.496;2023-07-20T12:25:42;99046.97;;;22.75;100.00
69848;BME280;57143;55.940;37.496;2023-07-20T12:28:10;99033.66;;;22.77;100.00
69848;BME280;57143;55.940;37.496;2023-07-20T12:30:41;99034.34;;;22.83;100.00
69848;BME280;57143;55.940;37.496;2023-07-20T12:33:08;99027.94;;;22.74;100.00
69848;BME280;57143;55.940;37.496;2023-07-20T12:35:36;99028.38;;;22.67;100.00
69848;BME280;57143;55.940;37.496;2023-07-20T12:38:03;99019.59;;;22.52;100.00
69848;BME280;57143;55.940;37.496;2023-07-20T12:40:31;99011.16;;;22.21;100.00
69848;BME280;57143;55.940;37.496;2023-07-20T12:42:59;99003.34;;;21.88;100.00
69848;BME280;57143;55.940;37.496;2023-07-20T12:45:26;98979.31;;;21.74;100.00
69848;BME280;57143;55.940;37.496;2023-07-20T12:47:55;98934.47;;;21.55;100.00
69848;BME280;57143;55.940;37.496;2023-07-20T12:50:22;98913.34;;;21.37;100.00
69848;BME280;57143;55.940;37.496;2023-07-20T12:52:49;98921.72;;;21.32;100.00